Time;durP1;ratioP1;P1;durP2;ratioP2;P2;SDS_P1;SDS_P2;PMS_P1;PMS_P2;Temp;Humidity;BMP_temperature;BMP_pressure;BME280_temperature;BME280_humidity;BME280_pressure;Samples;Min_cycle;Max_cycle;Signal;HPM_P1;HPM_P2
2021/12/13 00:01:44;;;;;;;;;26.25;24.00;;;;;;;;5074645;27;45479;-45
2021/12/13 00:04:12;;;;;;;;;32.00;29.50;;;;;;;;5066060;27;45236;-47
2021/12/13 00:06:39;;;;;;;;;29.75;27.25;;;;;;;;5075306;27;45635;-48
2021/12/13 00:09:12;;;;;;;;;26.00;23.50;;;;;;;;5071850;27;46385;-47
2021/12/13 00:11:39;;;;;;;;;31.00;27.50;;;;;;;;5070808;28;45371;-46
2021/12/13 00:14:09;;;;;;;;;22.75;21.75;;;;;;;;5078483;27;45447;-48
2021/12/13 00:16:37;;;;;;;;;29.50;24.25;;;;;;;;5068798;27;45473;-47
2021/12/13 00:19:07;;;;;;;;;24.25;23.00;;;;;;;;5078718;27;46586;-48
2021/12/13 00:21:37;;;;;;;;;24.50;21.75;;;;;;;;5077278;27;45505;-46
2021/12/13 00:24:08;;;;;;;;;20.00;18.75;;;;;;;;5077353;27;45571;-48
2021/12/13 00:26:38;;;;;;;;;27.50;26.00;;;;;;;;5078423;27;45223;-49
2021/12/13 00:29:21;;;;;;;;;28.00;26.75;;;;;;;;5072409;27;46657;-48
2021/12/13 00:31:48;;;;;;;;;30.67;25.33;;;;;;;;5076901;27;45361;-46
2021/12/13 00:34:20;;;;;;;;;29.50;29.25;;;;;;;;5077134;27;45437;-48
2021/12/13 00:36:54;;;;;;;;;29.50;26.50;;;;;;;;5078306;27;45468;-48
2021/12/13 00:39:28;;;;;;;;;24.00;22.33;;;;;;;;5074171;27;45475;-47
2021/12/13 00:41:56;;;;;;;;;22.00;21.75;;;;;;;;5060698;28;45177;-47
2021/12/13 00:44:29;;;;;;;;;24.50;20.75;;;;;;;;5067120;28;45466;-46
2021/12/13 00:46:56;;;;;;;;;25.00;22.00;;;;;;;;5077675;27;45554;-50
2021/12/13 00:49:24;;;;;;;;;20.75;20.75;;;;;;;;5074203;27;46068;-46
2021/12/13 00:51:51;;;;;;;;;21.67;21.00;;;;;;;;5075267;28;45497;-47
2021/12/13 00:54:18;;;;;;;;;23.33;20.33;;;;;;;;5077054;27;45485;-48
2021/12/13 00:56:51;;;;;;;;;29.50;25.75;;;;;;;;5077191;27;45507;-47
2021/12/13 00:59:22;;;;;;;;;28.00;22.67;;;;;;;;5078338;27;45400;-48
2021/12/13 01:01:55;;;;;;;;;21.25;21.00;;;;;;;;5076987;27;45587;-49
2021/12/13 01:04:21;;;;;;;;;21.75;21.75;;;;;;;;5071339;28;45246;-47
2021/12/13 01:07:15;;;;;;;;;24.33;21.33;;;;;;;;5078258;27;45165;-47
2021/12/13 01:09:43;;;;;;;;;23.00;21.33;;;;;;;;5057659;28;46101;-48
2021/12/13 01:12:12;;;;;;;;;30.75;30.00;;;;;;;;5077114;28;45361;-49
2021/12/13 01:14:39;;;;;;;;;27.00;25.67;;;;;;;;5078020;27;45286;-47
2021/12/13 01:17:14;;;;;;;;;26.50;23.00;;;;;;;;5077263;27;45570;-48
2021/12/13 01:19:55;;;;;;;;;27.00;24.50;;;;;;;;5076960;27;45374;-49
2021/12/13 01:27:34;;;;;;;;;22.50;19.75;;;;;;;;5077290;27;45720;-49
2021/12/13 01:29:59;;;;;;;;;26.00;25.75;;;;;;;;5076681;28;45505;-45
2021/12/13 01:32:33;;;;;;;;;25.00;23.25;;;;;;;;5077237;27;45484;-46
2021/12/13 01:34:58;;;;;;;;;18.50;17.75;;;;;;;;5077991;27;45622;-47
2021/12/13 01:37:28;;;;;;;;;20.50;20.25;;;;;;;;5077554;28;45610;-49
2021/12/13 01:39:56;;;;;;;;;22.33;22.33;;;;;;;;5076754;27;45391;-48
2021/12/13 01:42:25;;;;;;;;;27.50;23.00;;;;;;;;5077204;28;45362;-46
2021/12/13 01:44:54;;;;;;;;;27.00;21.25;;;;;;;;5077095;27;45485;-44
2021/12/13 01:47:24;;;;;;;;;24.00;21.33;;;;;;;;5077089;27;45409;-49
2021/12/13 01:49:52;;;;;;;;;23.25;19.75;;;;;;;;5077036;28;45491;-46
2021/12/13 01:52:17;;;;;;;;;25.25;22.75;;;;;;;;5076399;27;45205;-45
2021/12/13 01:54:42;;;;;;;;;26.25;21.75;;;;;;;;5075922;28;45215;-46
2021/12/13 02:02:10;;;;;;;;;27.75;27.00;;;;;;;;5076057;27;45379;-47
2021/12/13 02:04:36;;;;;;;;;20.75;20.50;;;;;;;;5077056;27;45536;-46
2021/12/13 02:07:03;;;;;;;;;28.75;24.25;;;;;;;;5077030;28;45596;-46
2021/12/13 02:09:31;;;;;;;;;27.25;23.25;;;;;;;;5076857;28;46546;-48
2021/12/13 02:11:57;;;;;;;;;27.00;25.00;;;;;;;;5076446;28;45452;-46
2021/12/13 02:14:27;;;;;;;;;24.50;22.75;;;;;;;;5076235;28;45502;-48
2021/12/13 02:17:12;;;;;;;;;24.75;23.50;;;;;;;;5076570;27;45358;-47
2021/12/13 02:19:50;;;;;;;;;28.25;27.00;;;;;;;;5076666;27;45355;-49
2021/12/13 02:22:33;;;;;;;;;28.00;26.25;;;;;;;;5075659;28;45534;-47
2021/12/13 02:25:00;;;;;;;;;35.25;29.75;;;;;;;;5076866;27;45274;-46
2021/12/13 02:27:28;;;;;;;;;29.50;26.00;;;;;;;;5075079;27;45164;-47
2021/12/13 02:29:54;;;;;;;;;39.00;32.75;;;;;;;;5075625;28;45361;-47
2021/12/13 02:32:20;;;;;;;;;30.50;29.00;;;;;;;;5076280;28;45390;-45
2021/12/13 02:34:45;;;;;;;;;35.75;32.25;;;;;;;;5075429;27;45476;-49
2021/12/13 02:37:11;;;;;;;;;37.50;34.75;;;;;;;;5074736;27;45656;-45
2021/12/13 02:39:39;;;;;;;;;36.50;33.50;;;;;;;;5076079;27;45477;-46
2021/12/13 02:42:06;;;;;;;;;36.25;33.75;;;;;;;;5076369;28;45555;-50
2021/12/13 02:44:37;;;;;;;;;37.50;29.50;;;;;;;;5075527;28;45376;-46
2021/12/13 02:47:05;;;;;;;;;35.75;32.75;;;;;;;;5075743;28;45290;-45
2021/12/13 02:49:31;;;;;;;;;31.50;28.75;;;;;;;;5075497;27;46246;-47
2021/12/13 02:52:01;;;;;;;;;28.75;27.25;;;;;;;;5076658;27;45862;-47
2021/12/13 02:54:26;;;;;;;;;34.75;26.50;;;;;;;;5075397;27;45435;-46
2021/12/13 02:56:58;;;;;;;;;23.75;20.25;;;;;;;;5076159;27;45442;-46
2021/12/13 02:59:24;;;;;;;;;26.00;21.75;;;;;;;;5076207;28;46444;-44
2021/12/13 03:02:01;;;;;;;;;26.25;23.50;;;;;;;;5076345;28;45451;-45
2021/12/13 03:04:27;;;;;;;;;22.00;21.75;;;;;;;;5076596;28;45390;-47
2021/12/13 03:07:08;;;;;;;;;21.75;18.75;;;;;;;;5075839;27;45447;-47
2021/12/13 03:09:34;;;;;;;;;23.50;19.50;;;;;;;;5075926;27;46178;-46
2021/12/13 03:12:00;;;;;;;;;29.25;25.25;;;;;;;;5076634;28;45377;-45
2021/12/13 03:14:31;;;;;;;;;22.75;21.25;;;;;;;;5076873;28;45415;-46
2021/12/13 03:16:56;;;;;;;;;23.00;19.25;;;;;;;;5075605;28;45676;-47
2021/12/13 03:19:28;;;;;;;;;31.50;26.25;;;;;;;;5075907;28;45318;-46
2021/12/13 03:22:02;;;;;;;;;25.50;23.75;;;;;;;;5076202;27;45470;-47
2021/12/13 03:24:27;;;;;;;;;27.25;21.75;;;;;;;;5076120;27;45314;-47
2021/12/13 03:26:57;;;;;;;;;25.20;23.40;;;;;;;;5076606;28;45561;-50
2021/12/13 03:29:39;;;;;;;;;28.00;24.25;;;;;;;;5076544;28;46125;-47
2021/12/13 03:32:08;;;;;;;;;26.00;23.00;;;;;;;;5075341;28;45449;-47
2021/12/13 03:34:39;;;;;;;;;26.25;23.75;;;;;;;;5076231;28;45348;-47
2021/12/13 03:37:18;;;;;;;;;22.50;20.50;;;;;;;;5076448;27;45291;-45
2021/12/13 03:39:47;;;;;;;;;20.75;20.75;;;;;;;;5076119;27;45333;-46
2021/12/13 03:42:15;;;;;;;;;23.25;20.75;;;;;;;;5074939;27;45555;-45
2021/12/13 03:44:46;;;;;;;;;22.25;19.75;;;;;;;;5076914;27;45439;-46
2021/12/13 03:47:13;;;;;;;;;22.00;21.25;;;;;;;;5078553;28;45512;-47
2021/12/13 03:49:42;;;;;;;;;20.50;19.75;;;;;;;;5079364;27;45270;-46
2021/12/13 03:52:09;;;;;;;;;29.75;22.50;;;;;;;;5079044;27;45246;-45
2021/12/13 03:54:36;;;;;;;;;27.25;23.25;;;;;;;;5079405;28;45402;-46
2021/12/13 03:57:01;;;;;;;;;23.33;20.33;;;;;;;;5078218;28;45552;-46
2021/12/13 03:59:28;;;;;;;;;31.00;25.50;;;;;;;;5079465;27;46207;-48
2021/12/13 04:01:58;;;;;;;;;31.50;24.25;;;;;;;;5079357;27;45549;-48
2021/12/13 04:04:29;;;;;;;;;18.67;18.67;;;;;;;;5079345;27;45392;-49
2021/12/13 04:06:57;;;;;;;;;22.33;18.67;;;;;;;;5079621;28;45379;-45
2021/12/13 04:09:23;;;;;;;;;22.67;20.67;;;;;;;;5066284;28;46405;-48
2021/12/13 04:11:51;;;;;;;;;19.67;18.33;;;;;;;;5073886;27;45448;-47
2021/12/13 04:14:22;;;;;;;;;23.00;18.00;;;;;;;;5078816;27;45528;-45
2021/12/13 04:17:19;;;;;;;;;22.67;16.33;;;;;;;;5079298;27;45239;-47
2021/12/13 04:19:51;;;;;;;;;17.00;15.33;;;;;;;;5078995;28;45405;-47
2021/12/13 04:22:18;;;;;;;;;23.67;20.33;;;;;;;;5078940;28;45576;-49
2021/12/13 04:24:49;;;;;;;;;21.75;21.00;;;;;;;;5079115;27;45344;-46
2021/12/13 04:27:17;;;;;;;;;17.33;15.33;;;;;;;;5078982;28;45388;-47
2021/12/13 04:29:43;;;;;;;;;20.00;16.33;;;;;;;;5079287;27;45400;-48
2021/12/13 04:32:11;;;;;;;;;22.67;20.67;;;;;;;;5078464;28;45570;-46
2021/12/13 04:34:41;;;;;;;;;17.00;17.00;;;;;;;;5078572;27;45616;-46
2021/12/13 04:37:09;;;;;;;;;21.67;17.33;;;;;;;;5078019;27;45434;-46
2021/12/13 04:39:36;;;;;;;;;24.00;17.67;;;;;;;;5078695;27;45404;-47
2021/12/13 04:42:09;;;;;;;;;20.67;17.33;;;;;;;;5079074;27;45313;-46
2021/12/13 04:44:43;;;;;;;;;18.00;15.67;;;;;;;;5078889;27;45456;-50
2021/12/13 04:47:10;;;;;;;;;17.67;16.33;;;;;;;;5077936;28;45429;-46
2021/12/13 04:49:38;;;;;;;;;19.67;17.67;;;;;;;;5078031;28;46383;-47
2021/12/13 04:52:12;;;;;;;;;18.50;15.50;;;;;;;;5078572;27;45540;-46
2021/12/13 04:54:40;;;;;;;;;15.33;14.67;;;;;;;;5078826;27;45298;-46
2021/12/13 04:57:05;;;;;;;;;23.33;18.00;;;;;;;;5077490;27;45334;-46
2021/12/13 04:59:31;;;;;;;;;16.00;16.00;;;;;;;;5077290;27;45545;-47
2021/12/13 05:01:58;;;;;;;;;18.33;16.33;;;;;;;;5078431;27;45232;-46
2021/12/13 05:04:27;;;;;;;;;15.33;13.67;;;;;;;;5079099;27;45341;-49
2021/12/13 05:06:52;;;;;;;;;17.33;17.33;;;;;;;;5078729;27;45540;-46
2021/12/13 05:09:19;;;;;;;;;17.67;16.67;;;;;;;;5077117;27;45516;-46
2021/12/13 05:11:53;;;;;;;;;18.33;16.33;;;;;;;;5077376;28;45396;-46
2021/12/13 05:14:34;;;;;;;;;18.33;16.33;;;;;;;;5074465;27;45514;-47
2021/12/13 05:17:07;;;;;;;;;17.00;16.00;;;;;;;;5077755;28;45310;-46
2021/12/13 05:19:36;;;;;;;;;17.00;17.00;;;;;;;;5068677;27;46172;-46
2021/12/13 05:22:03;;;;;;;;;16.33;16.33;;;;;;;;5059292;28;45385;-46
2021/12/13 05:24:31;;;;;;;;;16.00;13.33;;;;;;;;5078528;27;45323;-47
2021/12/13 05:27:01;;;;;;;;;17.00;15.33;;;;;;;;5077778;27;45215;-47
2021/12/13 05:29:32;;;;;;;;;16.00;10.33;;;;;;;;5077659;28;45371;-49
2021/12/13 05:32:09;;;;;;;;;12.00;11.67;;;;;;;;5076928;27;45568;-46
2021/12/13 05:34:37;;;;;;;;;16.67;13.33;;;;;;;;5078195;27;45274;-48
2021/12/13 05:37:04;;;;;;;;;15.00;13.67;;;;;;;;5077735;27;45469;-47
2021/12/13 05:39:29;;;;;;;;;14.00;13.67;;;;;;;;5076455;27;47226;-49
2021/12/13 05:42:04;;;;;;;;;15.00;15.00;;;;;;;;5077527;27;45472;-47
2021/12/13 05:44:32;;;;;;;;;14.67;14.00;;;;;;;;5078225;27;45270;-47
2021/12/13 05:46:58;;;;;;;;;17.67;16.67;;;;;;;;5077250;28;45548;-47
2021/12/13 05:49:25;;;;;;;;;14.67;14.67;;;;;;;;5077441;27;46225;-47
2021/12/13 05:51:53;;;;;;;;;16.67;14.00;;;;;;;;5078226;28;45306;-48
2021/12/13 05:54:24;;;;;;;;;15.67;15.00;;;;;;;;5077547;27;45458;-48
2021/12/13 05:56:53;;;;;;;;;14.00;14.00;;;;;;;;5077905;27;45389;-48
2021/12/13 05:59:22;;;;;;;;;14.33;14.33;;;;;;;;5076824;27;46880;-47
2021/12/13 06:01:53;;;;;;;;;16.67;16.67;;;;;;;;5076254;27;45538;-48
2021/12/13 06:04:37;;;;;;;;;18.67;16.67;;;;;;;;5076769;28;45322;-46
2021/12/13 06:07:11;;;;;;;;;16.33;15.00;;;;;;;;5056798;28;45494;-46
2021/12/13 06:09:45;;;;;;;;;15.33;14.00;;;;;;;;5058718;28;46460;-47
2021/12/13 06:12:13;;;;;;;;;19.67;16.00;;;;;;;;5068231;28;45359;-48
2021/12/13 06:14:38;;;;;;;;;15.33;15.33;;;;;;;;5068027;28;45495;-47
2021/12/13 06:17:06;;;;;;;;;16.00;16.00;;;;;;;;5075079;27;45537;-48
2021/12/13 06:19:34;;;;;;;;;22.00;19.00;;;;;;;;5076912;27;46435;-48
2021/12/13 06:22:02;;;;;;;;;20.75;17.75;;;;;;;;5075263;27;45334;-48
2021/12/13 06:24:29;;;;;;;;;23.67;18.00;;;;;;;;5076711;28;45340;-50
2021/12/13 06:27:03;;;;;;;;;16.00;15.33;;;;;;;;5077074;27;45277;-48
2021/12/13 06:29:45;;;;;;;;;21.00;20.00;;;;;;;;5076515;27;46315;-48
2021/12/13 06:32:24;;;;;;;;;17.67;17.67;;;;;;;;5076222;28;45417;-48
2021/12/13 06:34:49;;;;;;;;;20.67;16.67;;;;;;;;5072115;27;45219;-48
2021/12/13 06:37:21;;;;;;;;;17.00;15.00;;;;;;;;5075831;27;45563;-47
2021/12/13 06:39:47;;;;;;;;;16.67;14.33;;;;;;;;5076924;27;46352;-48
2021/12/13 06:42:14;;;;;;;;;18.67;18.67;;;;;;;;5076941;28;45274;-47
2021/12/13 06:44:45;;;;;;;;;20.00;18.00;;;;;;;;5077384;27;45261;-46
2021/12/13 06:47:18;;;;;;;;;17.33;16.00;;;;;;;;5076379;27;45529;-46
2021/12/13 06:49:47;;;;;;;;;16.00;15.00;;;;;;;;5075968;27;46813;-50
2021/12/13 06:52:13;;;;;;;;;20.33;17.67;;;;;;;;5075346;28;45587;-46
2021/12/13 06:54:38;;;;;;;;;15.67;14.67;;;;;;;;5076946;28;45287;-48
2021/12/13 06:57:12;;;;;;;;;13.67;12.33;;;;;;;;5076956;27;45484;-45
2021/12/13 06:59:46;;;;;;;;;13.00;13.00;;;;;;;;5075622;27;45457;-47
2021/12/13 07:02:13;;;;;;;;;15.33;14.33;;;;;;;;5075727;27;45515;-46
2021/12/13 07:04:47;;;;;;;;;10.67;10.67;;;;;;;;5076763;28;45329;-50
2021/12/13 07:07:13;;;;;;;;;10.00;9.67;;;;;;;;5075574;28;45452;-48
2021/12/13 07:09:39;;;;;;;;;9.67;9.67;;;;;;;;5075441;27;46418;-47
2021/12/13 07:12:11;;;;;;;;;15.00;10.67;;;;;;;;5067039;27;45331;-46
2021/12/13 07:14:38;;;;;;;;;9.00;9.00;;;;;;;;5076593;28;45470;-47
2021/12/13 07:17:36;;;;;;;;;9.67;9.67;;;;;;;;5073654;27;45523;-48
2021/12/13 07:20:15;;;;;;;;;9.00;9.00;;;;;;;;5040966;27;46072;-46
2021/12/13 07:22:41;;;;;;;;;8.00;8.00;;;;;;;;5074156;28;45509;-50
2021/12/13 07:25:08;;;;;;;;;10.67;10.00;;;;;;;;5076571;27;45385;-46
2021/12/13 07:27:35;;;;;;;;;7.33;7.33;;;;;;;;5076396;28;45538;-54
2021/12/13 07:30:13;;;;;;;;;7.00;6.67;;;;;;;;5073571;28;45358;-47
2021/12/13 07:32:40;;;;;;;;;5.33;4.00;;;;;;;;5075555;27;45828;-46
2021/12/13 07:35:21;;;;;;;;;8.67;7.67;;;;;;;;5075110;28;45334;-47
2021/12/13 07:37:50;;;;;;;;;6.33;6.33;;;;;;;;5075440;27;45476;-45
2021/12/13 07:40:33;;;;;;;;;5.33;4.00;;;;;;;;5074477;27;46226;-49
2021/12/13 07:43:04;;;;;;;;;4.33;4.00;;;;;;;;5074788;27;45582;-47
2021/12/13 07:45:37;;;;;;;;;8.00;7.00;;;;;;;;5075831;27;45452;-46
2021/12/13 07:48:08;;;;;;;;;8.00;6.33;;;;;;;;5075909;27;45285;-47
2021/12/13 07:50:34;;;;;;;;;10.00;8.67;;;;;;;;5075296;27;45307;-49
2021/12/13 07:53:02;;;;;;;;;9.33;9.33;;;;;;;;5075145;27;45390;-50
2021/12/13 07:55:29;;;;;;;;;11.33;10.00;;;;;;;;5075735;28;46226;-46
2021/12/13 07:57:56;;;;;;;;;10.00;10.00;;;;;;;;5075811;28;45341;-47
2021/12/13 08:00:26;;;;;;;;;11.33;11.33;;;;;;;;5075343;27;47297;-47
2021/12/13 08:02:56;;;;;;;;;13.00;9.67;;;;;;;;5073561;28;45601;-46
2021/12/13 08:05:23;;;;;;;;;11.00;11.00;;;;;;;;5074192;27;45309;-44
2021/12/13 08:07:51;;;;;;;;;15.67;12.33;;;;;;;;5075182;28;45489;-47
2021/12/13 08:10:31;;;;;;;;;15.00;14.33;;;;;;;;5074335;28;45449;-44
2021/12/13 08:13:03;;;;;;;;;14.00;13.00;;;;;;;;5075113;27;45218;-47
2021/12/13 08:15:39;;;;;;;;;18.00;15.67;;;;;;;;5075026;28;45389;-48
2021/12/13 08:18:07;;;;;;;;;11.33;11.33;;;;;;;;5072797;27;45307;-46
2021/12/13 08:20:44;;;;;;;;;14.33;13.00;;;;;;;;5072750;27;46254;-46
2021/12/13 08:23:14;;;;;;;;;14.00;14.00;;;;;;;;5055087;28;45563;-45
2021/12/13 08:25:40;;;;;;;;;16.67;14.33;;;;;;;;5064738;28;45231;-46
2021/12/13 08:28:07;;;;;;;;;16.00;14.67;;;;;;;;5074610;27;45323;-49
2021/12/13 08:30:48;;;;;;;;;17.33;16.33;;;;;;;;5076228;27;45457;-46
2021/12/13 08:33:15;;;;;;;;;14.00;13.33;;;;;;;;5079180;27;45308;-48
2021/12/13 08:35:46;;;;;;;;;8.33;8.33;;;;;;;;5079385;27;45205;-47
2021/12/13 08:38:22;;;;;;;;;15.33;14.00;;;;;;;;5078116;27;45530;-47
2021/12/13 08:40:47;;;;;;;;;11.33;10.00;;;;;;;;5078727;27;48415;-47
2021/12/13 08:43:13;;;;;;;;;14.67;13.67;;;;;;;;5078498;28;45282;-47
2021/12/13 08:45:40;;;;;;;;;14.00;14.00;;;;;;;;5079297;27;45306;-48
2021/12/13 08:48:15;;;;;;;;;12.67;10.00;;;;;;;;5079044;27;45641;-46
2021/12/13 08:50:44;;;;;;;;;9.67;9.00;;;;;;;;5076268;27;45369;-48
2021/12/13 08:53:12;;;;;;;;;9.33;8.00;;;;;;;;5078667;27;45343;-47
2021/12/13 08:55:40;;;;;;;;;8.00;7.67;;;;;;;;5076551;27;45326;-46
2021/12/13 08:58:11;;;;;;;;;9.00;7.67;;;;;;;;5069616;28;45648;-46
2021/12/13 09:00:42;;;;;;;;;9.67;7.00;;;;;;;;5060323;27;45998;-46
2021/12/13 09:03:10;;;;;;;;;9.67;8.00;;;;;;;;5062895;28;45461;-45
2021/12/13 09:05:37;;;;;;;;;10.00;9.00;;;;;;;;5078895;27;45359;-46
2021/12/13 09:08:06;;;;;;;;;8.67;8.67;;;;;;;;5078365;27;45441;-46
2021/12/13 09:10:47;;;;;;;;;7.00;7.00;;;;;;;;5078343;27;45306;-46
2021/12/13 09:13:15;;;;;;;;;5.67;4.67;;;;;;;;5078199;27;45423;-46
2021/12/13 09:15:41;;;;;;;;;9.00;9.00;;;;;;;;5078774;27;45449;-46
2021/12/13 09:18:07;;;;;;;;;6.00;5.00;;;;;;;;5078785;27;45327;-47
2021/12/13 09:20:37;;;;;;;;;8.00;7.00;;;;;;;;5078512;27;45309;-46
2021/12/13 09:23:17;;;;;;;;;5.33;5.33;;;;;;;;5077646;27;45497;-49
2021/12/13 09:25:48;;;;;;;;;6.67;6.67;;;;;;;;5078653;27;45355;-47
2021/12/13 09:28:20;;;;;;;;;3.67;3.67;;;;;;;;5078481;27;45562;-48
2021/12/13 09:30:53;;;;;;;;;3.33;3.33;;;;;;;;5078357;27;45592;-47
2021/12/13 09:33:18;;;;;;;;;4.00;4.00;;;;;;;;5067924;27;45364;-48
2021/12/13 09:35:49;;;;;;;;;3.33;3.33;;;;;;;;5063427;28;45469;-49
2021/12/13 09:38:17;;;;;;;;;3.33;3.33;;;;;;;;5078585;27;45339;-47
2021/12/13 09:40:44;;;;;;;;;2.00;2.00;;;;;;;;5075589;27;45425;-49
2021/12/13 09:43:10;;;;;;;;;3.00;2.00;;;;;;;;5077165;27;45428;-48
2021/12/13 09:45:47;;;;;;;;;3.00;3.00;;;;;;;;5077918;27;45436;-45
2021/12/13 09:48:18;;;;;;;;;5.33;4.00;;;;;;;;5078367;27;45338;-45
2021/12/13 09:50:44;;;;;;;;;2.00;2.00;;;;;;;;5078082;27;46166;-45
2021/12/13 09:53:10;;;;;;;;;2.00;2.00;;;;;;;;5077800;27;45436;-46
2021/12/13 09:55:38;;;;;;;;;5.33;5.33;;;;;;;;5076490;27;45495;-45
2021/12/13 09:58:14;;;;;;;;;2.00;2.00;;;;;;;;5077805;27;45422;-47
2021/12/13 10:00:41;;;;;;;;;2.00;2.00;;;;;;;;5077512;27;46388;-48
2021/12/13 10:03:12;;;;;;;;;5.67;4.67;;;;;;;;5077672;28;45476;-50
2021/12/13 10:05:39;;;;;;;;;3.33;3.33;;;;;;;;5077749;27;45416;-46
2021/12/13 10:08:07;;;;;;;;;5.00;3.00;;;;;;;;5077069;27;45676;-46
2021/12/13 10:10:40;;;;;;;;;3.67;2.33;;;;;;;;5077257;27;46370;-48
2021/12/13 10:13:07;;;;;;;;;6.67;5.67;;;;;;;;5077613;27;45448;-48
2021/12/13 10:15:36;;;;;;;;;5.67;4.00;;;;;;;;5077500;27;45372;-46
2021/12/13 10:18:05;;;;;;;;;6.00;3.33;;;;;;;;5077051;27;45329;-47
2021/12/13 10:20:35;;;;;;;;;6.67;5.33;;;;;;;;5077212;27;45245;-47
2021/12/13 10:23:01;;;;;;;;;7.67;6.00;;;;;;;;5077427;27;45365;-47
2021/12/13 10:25:34;;;;;;;;;3.00;3.00;;;;;;;;5077508;27;45337;-48
2021/12/13 10:28:01;;;;;;;;;10.00;10.00;;;;;;;;5077130;27;45349;-48
2021/12/13 10:30:46;;;;;;;;;5.33;5.33;;;;;;;;5058885;28;46556;-47
2021/12/13 10:33:12;;;;;;;;;3.67;3.67;;;;;;;;5076073;28;45447;-48
2021/12/13 10:35:41;;;;;;;;;2.33;2.33;;;;;;;;5077039;28;45247;-45
2021/12/13 10:38:08;;;;;;;;;4.00;4.00;;;;;;;;5077405;27;45480;-48
2021/12/13 10:40:43;;;;;;;;;3.00;3.00;;;;;;;;5076562;27;45278;-46
2021/12/13 10:43:10;;;;;;;;;3.00;3.00;;;;;;;;5076992;27;45450;-47
2021/12/13 10:45:56;;;;;;;;;3.67;3.67;;;;;;;;5077157;28;45325;-49
2021/12/13 10:48:25;;;;;;;;;3.00;3.00;;;;;;;;5076487;28;45585;-47
2021/12/13 10:50:56;;;;;;;;;2.67;2.67;;;;;;;;5076401;28;46056;-49
2021/12/13 10:53:23;;;;;;;;;6.00;3.00;;;;;;;;5076811;27;45396;-49
2021/12/13 10:55:51;;;;;;;;;1.50;1.50;;;;;;;;5075372;27;45556;-48
2021/12/13 10:58:19;;;;;;;;;2.00;2.00;;;;;;;;5066633;28;45251;-47
2021/12/13 11:00:49;;;;;;;;;2.00;2.00;;;;;;;;5060936;27;46918;-45
2021/12/13 11:03:19;;;;;;;;;4.67;4.67;;;;;;;;5058345;28;45223;-45
2021/12/13 11:05:45;;;;;;;;;7.00;7.00;;;;;;;;5076613;27;45420;-49
2021/12/13 11:08:11;;;;;;;;;2.67;2.33;;;;;;;;5076524;27;45586;-48
2021/12/13 11:10:48;;;;;;;;;3.00;3.00;;;;;;;;5074463;27;45387;-45
2021/12/13 11:13:14;;;;;;;;;2.33;2.00;;;;;;;;5069285;27;45386;-49
2021/12/13 11:15:40;;;;;;;;;2.00;2.00;;;;;;;;5069934;28;45239;-46
2021/12/13 11:18:09;;;;;;;;;2.00;2.00;;;;;;;;5076214;27;45271;-45
2021/12/13 11:20:40;;;;;;;;;1.67;1.67;;;;;;;;5054590;28;45661;-46
2021/12/13 11:23:06;;;;;;;;;2.00;2.00;;;;;;;;5065905;28;45358;-46
2021/12/13 11:25:33;;;;;;;;;6.00;6.00;;;;;;;;5076646;27;45228;-47
2021/12/13 11:27:59;;;;;;;;;6.00;6.00;;;;;;;;5076293;27;45311;-46
2021/12/13 11:30:26;;;;;;;;;3.33;3.33;;;;;;;;5075970;27;45502;-48
2021/12/13 11:32:57;;;;;;;;;4.67;4.67;;;;;;;;5075532;27;45437;-47
2021/12/13 11:35:28;;;;;;;;;6.00;6.00;;;;;;;;5075715;27;45377;-47
2021/12/13 11:38:14;;;;;;;;;7.00;4.00;;;;;;;;5076265;27;45379;-44
2021/12/13 11:40:55;;;;;;;;;6.33;6.33;;;;;;;;5075401;27;47689;-47
2021/12/13 11:43:39;;;;;;;;;7.67;7.67;;;;;;;;5075901;28;45480;-45
2021/12/13 11:46:26;;;;;;;;;6.00;6.00;;;;;;;;5075425;28;45487;-46
2021/12/13 11:49:10;;;;;;;;;7.00;4.00;;;;;;;;5076090;28;45566;-49
2021/12/13 11:51:44;;;;;;;;;6.67;6.67;;;;;;;;5075984;28;45973;-45
2021/12/13 11:54:28;;;;;;;;;3.67;3.67;;;;;;;;5075810;28;45535;-48
2021/12/13 11:56:53;;;;;;;;;4.00;4.00;;;;;;;;5074083;27;45484;-47
2021/12/13 11:59:28;;;;;;;;;4.00;4.00;;;;;;;;5064264;27;45528;-47
2021/12/13 12:02:01;;;;;;;;;4.67;4.67;;;;;;;;5072842;28;46404;-49
2021/12/13 12:04:29;;;;;;;;;6.00;6.00;;;;;;;;5059590;27;45311;-45
2021/12/13 12:07:13;;;;;;;;;4.33;4.00;;;;;;;;5060211;27;45465;-47
2021/12/13 12:09:56;;;;;;;;;6.00;6.00;;;;;;;;5078788;27;45495;-46
2021/12/13 12:12:25;;;;;;;;;10.50;10.50;;;;;;;;5077183;27;46359;-45
2021/12/13 12:14:58;;;;;;;;;12.33;12.00;;;;;;;;5077725;27;45394;-49
2021/12/13 12:17:24;;;;;;;;;8.00;7.00;;;;;;;;5079936;27;45171;-48
2021/12/13 12:19:50;;;;;;;;;6.00;6.00;;;;;;;;5078306;28;45431;-45
2021/12/13 12:22:19;;;;;;;;;10.00;6.67;;;;;;;;5079274;27;46164;-49
2021/12/13 12:24:47;;;;;;;;;7.00;7.00;;;;;;;;5077767;28;45501;-48
2021/12/13 12:27:33;;;;;;;;;9.33;8.00;;;;;;;;5077523;27;45322;-48
2021/12/13 12:29:59;;;;;;;;;8.33;8.33;;;;;;;;5078680;28;45346;-45
2021/12/13 12:32:29;;;;;;;;;9.00;8.00;;;;;;;;5079176;27;46315;-46
2021/12/13 12:35:01;;;;;;;;;9.00;8.00;;;;;;;;5077497;27;45270;-48
2021/12/13 12:37:49;;;;;;;;;8.00;8.00;;;;;;;;5078855;27;45274;-47
2021/12/13 12:40:23;;;;;;;;;11.67;10.00;;;;;;;;5077724;27;45497;-47
2021/12/13 12:42:51;;;;;;;;;9.00;9.00;;;;;;;;5078856;27;46057;-46
2021/12/13 12:45:19;;;;;;;;;8.00;8.00;;;;;;;;5074423;27;45457;-45
2021/12/13 12:47:50;;;;;;;;;8.67;8.67;;;;;;;;5079066;27;45374;-50
2021/12/13 12:50:15;;;;;;;;;9.33;9.33;;;;;;;;5079173;27;45451;-46
2021/12/13 12:52:52;;;;;;;;;8.00;8.00;;;;;;;;5078064;28;45373;-47
2021/12/13 12:55:20;;;;;;;;;9.33;8.00;;;;;;;;5078611;27;45459;-46
2021/12/13 12:57:45;;;;;;;;;14.00;10.33;;;;;;;;5078761;28;45318;-46
2021/12/13 13:00:11;;;;;;;;;12.00;10.00;;;;;;;;5078508;27;45397;-46
2021/12/13 13:02:36;;;;;;;;;12.00;10.00;;;;;;;;5077975;27;46512;-47
2021/12/13 13:05:04;;;;;;;;;10.67;8.67;;;;;;;;5078452;27;45377;-45
2021/12/13 13:07:35;;;;;;;;;13.33;11.00;;;;;;;;5078653;27;45368;-46
2021/12/13 13:10:02;;;;;;;;;12.33;12.00;;;;;;;;5078334;27;45479;-47
2021/12/13 13:12:28;;;;;;;;;8.67;8.67;;;;;;;;5078419;27;46083;-45
2021/12/13 13:14:55;;;;;;;;;8.00;6.33;;;;;;;;5078255;27;45350;-47
2021/12/13 13:17:22;;;;;;;;;12.33;11.67;;;;;;;;5077484;27;45397;-48
2021/12/13 13:19:48;;;;;;;;;9.00;8.67;;;;;;;;5078468;27;45299;-47
2021/12/13 13:22:18;;;;;;;;;9.67;9.67;;;;;;;;5078190;27;45499;-47
2021/12/13 13:24:46;;;;;;;;;12.00;11.67;;;;;;;;5077967;27;45383;-47
2021/12/13 13:27:12;;;;;;;;;8.00;7.67;;;;;;;;5078443;27;45284;-45
2021/12/13 13:29:38;;;;;;;;;10.33;8.67;;;;;;;;5078349;27;45384;-47
2021/12/13 13:32:04;;;;;;;;;12.33;12.33;;;;;;;;5077734;27;45670;-48
2021/12/13 13:34:29;;;;;;;;;10.00;10.00;;;;;;;;5078109;27;45329;-47
2021/12/13 13:36:56;;;;;;;;;12.50;8.00;;;;;;;;5078022;27;45476;-48
2021/12/13 13:39:24;;;;;;;;;8.67;8.67;;;;;;;;5077930;27;45252;-48
2021/12/13 13:41:53;;;;;;;;;8.00;8.00;;;;;;;;5077947;27;45400;-47
2021/12/13 13:44:21;;;;;;;;;8.00;8.00;;;;;;;;5077934;28;45282;-49
2021/12/13 13:46:46;;;;;;;;;9.33;9.33;;;;;;;;5077600;28;45413;-46
2021/12/13 13:49:19;;;;;;;;;8.00;8.00;;;;;;;;5077796;28;45303;-47
2021/12/13 13:51:44;;;;;;;;;8.67;6.00;;;;;;;;5073850;27;46439;-45
2021/12/13 13:54:09;;;;;;;;;7.67;7.67;;;;;;;;5066644;28;45293;-45
2021/12/13 13:56:36;;;;;;;;;11.33;9.67;;;;;;;;5072128;27;45331;-49
2021/12/13 13:59:07;;;;;;;;;8.67;8.67;;;;;;;;5077615;27;45481;-46
2021/12/13 14:01:38;;;;;;;;;10.67;7.33;;;;;;;;5061927;27;45373;-47
2021/12/13 14:04:24;;;;;;;;;9.33;9.33;;;;;;;;5057438;28;45301;-45
2021/12/13 14:06:54;;;;;;;;;9.00;7.67;;;;;;;;5057110;28;45259;-47
2021/12/13 14:09:23;;;;;;;;;9.67;8.67;;;;;;;;5056681;28;45505;-47
2021/12/13 14:11:48;;;;;;;;;12.50;12.00;;;;;;;;5057120;28;46748;-45
2021/12/13 14:14:15;;;;;;;;;12.00;12.00;;;;;;;;5076071;28;45416;-47
2021/12/13 14:16:47;;;;;;;;;13.00;12.00;;;;;;;;5077931;27;45271;-46
2021/12/13 14:19:13;;;;;;;;;10.33;10.33;;;;;;;;5076793;27;45546;-45
2021/12/13 14:21:42;;;;;;;;;11.00;11.00;;;;;;;;5077242;27;46116;-49
2021/12/13 14:24:09;;;;;;;;;12.67;12.00;;;;;;;;5077507;28;45388;-47
2021/12/13 14:26:35;;;;;;;;;9.33;9.33;;;;;;;;5077655;27;45546;-45
2021/12/13 14:29:02;;;;;;;;;9.67;9.00;;;;;;;;5076850;27;45360;-48
2021/12/13 14:31:41;;;;;;;;;11.00;11.00;;;;;;;;5076811;27;47242;-49
2021/12/13 14:34:08;;;;;;;;;12.33;10.67;;;;;;;;5077003;27;45355;-49
2021/12/13 14:36:35;;;;;;;;;9.33;9.33;;;;;;;;5077411;27;45431;-47
2021/12/13 14:39:13;;;;;;;;;15.00;14.00;;;;;;;;5077339;27;45463;-48
2021/12/13 14:41:41;;;;;;;;;12.33;12.33;;;;;;;;5076596;27;45323;-47
2021/12/13 14:44:08;;;;;;;;;13.33;13.00;;;;;;;;5077111;27;45439;-45
2021/12/13 14:46:39;;;;;;;;;13.50;13.50;;;;;;;;5076982;27;45487;-44
2021/12/13 14:49:17;;;;;;;;;15.00;14.00;;;;;;;;5071028;27;45366;-46
2021/12/13 14:51:44;;;;;;;;;10.00;10.00;;;;;;;;5072021;27;48387;-47
2021/12/13 14:54:10;;;;;;;;;13.25;11.75;;;;;;;;5061055;27;45240;-48